Time;durP1;ratioP1;P1;durP2;ratioP2;P2;SDS_P1;SDS_P2;PMS_P1;PMS_P2;Temp;Humidity;BMP_temperature;BMP_pressure;BME280_temperature;BME280_humidity;BME280_pressure;Samples;Min_cycle;Max_cycle;Signal;HPM_P1;HPM_P2
2021/07/12 00:02:06;;;;;;;7.20;6.50;;;;;;;19.91;79.10;100522.03;93158;1209;75427;-59
2021/07/12 00:04:14;;;;;;;7.10;5.90;;;;;;;19.92;79.11;100521.77;93187;1208;81418;-59
2021/07/12 00:06:21;;;;;;;6.50;5.70;;;;;;;19.95;79.22;100517.70;92969;1215;67284;-60
2021/07/12 00:08:29;;;;;;;6.90;6.20;;;;;;;19.92;79.37;100520.92;93186;1209;67555;-67
2021/07/12 00:10:39;;;;;;;7.10;6.40;;;;;;;19.94;79.44;100507.83;93174;1214;88962;-67
2021/07/12 00:12:49;;;;;;;7.50;6.80;;;;;;;19.95;79.35;100510.30;93196;1208;74501;-66
2021/07/12 00:14:56;;;;;;;7.50;6.30;;;;;;;20.00;79.09;100512.30;93161;1214;79807;-66
2021/07/12 00:17:07;;;;;;;9.70;7.30;;;;;;;19.96;79.33;100511.98;93159;1208;66590;-67
2021/07/12 00:19:15;;;;;;;7.20;6.50;;;;;;;19.97;79.28;100507.30;93095;1208;69307;-59
2021/07/12 00:21:23;;;;;;;7.40;6.70;;;;;;;19.98;79.47;100514.45;93087;1214;86199;-59
2021/07/12 00:23:30;;;;;;;7.50;6.80;;;;;;;19.93;79.30;100506.98;93183;1209;74042;-67
2021/07/12 00:25:38;;;;;;;7.30;6.60;;;;;;;19.90;79.51;100515.70;93159;1209;82640;-68
2021/07/12 00:27:46;;;;;;;6.70;6.10;;;;;;;19.88;79.30;100517.03;93169;1205;68134;-67
2021/07/12 00:29:56;;;;;;;7.30;6.30;;;;;;;19.86;79.66;100510.97;93226;1214;67559;-67
2021/07/12 00:32:04;;;;;;;7.20;6.50;;;;;;;19.85;79.66;100515.62;93198;1214;86660;-67
2021/07/12 00:34:12;;;;;;;7.80;7.10;;;;;;;19.82;79.89;100515.27;93228;1209;74512;-59
2021/07/12 00:36:19;;;;;;;9.40;6.70;;;;;;;19.80;79.88;100511.95;93181;1209;82061;-59
2021/07/12 00:38:31;;;;;;;7.60;6.90;;;;;;;19.81;79.89;100510.86;93157;1214;65722;-60
2021/07/12 00:40:38;;;;;;;8.50;7.10;;;;;;;19.80;80.04;100518.27;93176;1209;68698;-59
2021/07/12 00:42:50;;;;;;;7.90;7.00;;;;;;;19.85;79.82;100520.27;93148;1214;87080;-59
2021/07/12 00:44:58;;;;;;;7.80;7.00;;;;;;;19.83;79.91;100520.50;93173;1209;73742;-67
2021/07/12 00:47:07;;;;;;;7.80;7.00;;;;;;;19.77;79.78;100523.41;93089;1208;81193;-67
2021/07/12 00:49:18;;;;;;;8.10;7.30;;;;;;;19.76;80.09;100517.09;93178;1208;67858;-67
2021/07/12 00:51:26;;;;;;;7.30;6.60;;;;;;;19.77;79.86;100513.28;93171;1209;68113;-67
2021/07/12 00:53:38;;;;;;;8.20;7.40;;;;;;;19.79;80.03;100515.77;93228;1203;86573;-59
2021/07/12 00:55:48;;;;;;;7.60;6.80;;;;;;;19.81;79.96;100524.56;93145;1209;74489;-59
2021/07/12 00:58:00;;;;;;;11.60;7.30;;;;;;;19.78;80.14;100516.83;93193;1209;80494;-59
2021/07/12 01:00:12;;;;;;;7.60;6.90;;;;;;;19.78;80.02;100520.41;93202;1209;66125;-60
2021/07/12 01:02:20;;;;;;;8.00;7.00;;;;;;;19.76;80.01;100525.31;93200;1214;69605;-60
2021/07/12 01:04:27;;;;;;;7.70;6.90;;;;;;;19.75;79.90;100528.31;93189;1214;86300;-58
2021/07/12 01:06:35;;;;;;;8.80;7.50;;;;;;;19.71;79.94;100535.35;93148;1209;75231;-58
2021/07/12 01:08:43;;;;;;;8.00;6.90;;;;;;;19.64;80.11;100535.48;93145;1209;81322;-67
2021/07/12 01:11:03;;;;;;;7.50;6.80;;;;;;;19.64;79.97;100540.16;93155;1209;66643;-67
2021/07/12 01:13:31;;;;;;;7.70;6.90;;;;;;;19.62;80.06;100534.08;93197;1208;69360;-67
2021/07/12 01:15:48;;;;;;;8.80;7.70;;;;;;;19.57;80.04;100533.98;93169;1208;86704;-67
2021/07/12 01:18:13;;;;;;;8.40;7.00;;;;;;;19.55;80.11;100530.66;93154;1207;73920;-67
2021/07/12 01:21:07;;;;;;;6.90;6.30;;;;;;;19.51;79.96;100523.99;93148;1210;82195;-60
2021/07/12 01:23:53;;;;;;;7.30;6.60;;;;;;;19.50;80.24;100514.97;93106;1209;67480;-62
2021/07/12 01:26:51;;;;;;;7.80;7.10;;;;;;;19.51;80.41;100513.87;92820;1210;68879;-66
2021/07/12 01:29:17;;;;;;;7.70;7.00;;;;;;;19.52;80.25;100509.22;93117;1208;86127;-58
2021/07/12 01:32:20;;;;;;;7.50;6.80;;;;;;;19.49;80.04;100501.49;93180;1203;75415;-59
2021/07/12 01:34:41;;;;;;;7.90;7.00;;;;;;;19.47;80.28;100500.91;93123;1209;81189;-67
2021/07/12 01:37:00;;;;;;;8.80;7.10;;;;;;;19.49;80.54;100498.75;93079;1209;67824;-66
2021/07/12 01:39:13;;;;;;;9.20;7.30;;;;;;;19.54;80.45;100496.10;93163;1208;69517;-66
2021/07/12 01:41:32;;;;;;;7.80;7.10;;;;;;;19.50;80.46;100495.78;93152;1204;87589;-66
2021/07/12 01:44:00;;;;;;;7.50;6.70;;;;;;;19.51;80.45;100497.42;93140;1209;75711;-67
2021/07/12 01:46:16;;;;;;;7.40;6.70;;;;;;;19.51;80.36;100502.91;93144;1210;81338;-66
2021/07/12 01:48:34;;;;;;;7.70;7.00;;;;;;;19.52;80.30;100501.84;93150;1208;66169;-59
2021/07/12 01:50:50;;;;;;;7.40;6.70;;;;;;;19.42;80.40;100496.98;93162;1209;68000;-59
2021/07/12 01:53:10;;;;;;;7.30;6.50;;;;;;;19.45;80.52;100498.40;93158;1210;86803;-59
2021/07/12 01:55:27;;;;;;;7.80;7.00;;;;;;;19.39;80.50;100491.98;93153;1214;75059;-67
2021/07/12 01:57:43;;;;;;;7.90;7.10;;;;;;;19.41;80.34;100497.24;93158;1208;80664;-67
2021/07/12 01:59:58;;;;;;;9.20;6.70;;;;;;;19.39;80.34;100497.47;93148;1209;67246;-67
2021/07/12 02:02:08;;;;;;;9.00;7.20;;;;;;;19.41;80.57;100495.34;93186;1209;67633;-67
2021/07/12 02:04:19;;;;;;;8.90;6.80;;;;;;;19.37;80.48;100502.34;93143;1209;86336;-68
2021/07/12 02:06:27;;;;;;;9.10;6.90;;;;;;;19.36;80.56;100497.95;93200;1209;73805;-66
2021/07/12 02:08:35;;;;;;;6.70;6.00;;;;;;;19.36;80.68;100494.38;93176;1208;81331;-58
2021/07/12 02:10:50;;;;;;;6.70;6.10;;;;;;;19.33;80.77;100492.96;93146;1207;67217;-59
2021/07/12 02:13:05;;;;;;;7.40;5.60;;;;;;;19.32;80.75;100490.45;93169;1208;67794;-60
2021/07/12 02:15:18;;;;;;;9.70;5.90;;;;;;;19.31;80.65;100488.80;93172;1208;86604;-58
2021/07/12 02:17:27;;;;;;;6.50;5.50;;;;;;;19.27;80.71;100493.09;93171;1214;75908;-59
2021/07/12 02:19:36;;;;;;;7.20;6.50;;;;;;;19.26;80.79;100480.45;93165;1208;81244;-59
2021/07/12 02:21:47;;;;;;;7.00;6.20;;;;;;;19.21;80.46;100486.68;93151;1209;67001;-58
2021/07/12 02:23:57;;;;;;;6.10;5.50;;;;;;;19.20;80.63;100476.78;93136;1214;69539;-66
2021/07/12 02:26:05;;;;;;;7.00;6.30;;;;;;;19.27;80.65;100477.49;93124;1208;86824;-67
2021/07/12 02:28:18;;;;;;;7.00;5.90;;;;;;;19.31;80.91;100475.11;93131;1208;74466;-64
2021/07/12 02:30:27;;;;;;;12.20;8.10;;;;;;;19.32;80.73;100471.27;93108;1208;81142;-68
2021/07/12 02:32:39;;;;;;;9.20;6.40;;;;;;;19.31;80.69;100469.63;93125;1208;66877;-67
2021/07/12 02:34:47;;;;;;;11.00;7.40;;;;;;;19.29;80.61;100472.59;93190;1209;67865;-68
2021/07/12 02:36:56;;;;;;;12.70;9.20;;;;;;;19.31;80.73;100473.17;93145;1209;86658;-67
2021/07/12 02:39:07;;;;;;;18.40;12.20;;;;;;;19.30;80.88;100471.53;92938;1208;74806;-68
2021/07/12 02:41:15;;;;;;;29.30;19.30;;;;;;;19.27;81.14;100472.02;93148;1209;80345;-67
2021/07/12 02:43:24;;;;;;;28.30;18.80;;;;;;;19.29;81.21;100469.02;93177;1208;67405;-68
2021/07/12 02:45:33;;;;;;;31.00;21.10;;;;;;;19.33;81.23;100473.78;93149;1208;68294;-67
2021/07/12 02:47:42;;;;;;;39.70;24.10;;;;;;;19.36;81.16;100477.94;93145;1209;85940;-67
2021/07/12 02:49:50;;;;;;;40.50;25.00;;;;;;;19.38;80.97;100473.07;93158;1209;73686;-68
2021/07/12 02:52:01;;;;;;;37.80;23.60;;;;;;;19.44;81.12;100474.84;93147;1209;82474;-66
2021/07/12 02:54:12;;;;;;;34.30;21.70;;;;;;;19.48;81.16;100469.67;93188;1207;66154;-58
2021/07/12 02:56:20;;;;;;;37.30;21.70;;;;;;;19.55;81.09;100468.47;93115;1209;68035;-58
2021/07/12 02:58:30;;;;;;;34.50;20.30;;;;;;;19.55;81.08;100464.89;93149;1213;85341;-59
2021/07/12 03:00:43;;;;;;;21.00;13.70;;;;;;;19.53;80.98;100462.38;93124;1209;75560;-59
2021/07/12 03:02:51;;;;;;;16.80;11.70;;;;;;;19.54;81.17;100464.05;93089;1208;81089;-59
2021/07/12 03:04:58;;;;;;;12.60;9.70;;;;;;;19.57;81.01;100468.20;93151;1208;67156;-59
2021/07/12 03:07:18;;;;;;;12.20;8.80;;;;;;;19.48;81.43;100465.03;92969;1213;68395;-59
2021/07/12 03:09:37;;;;;;;13.50;8.60;;;;;;;19.52;81.11;100462.64;93151;1209;86964;-67
2021/07/12 03:11:52;;;;;;;10.00;8.10;;;;;;;19.54;81.26;100455.00;93099;1209;73453;-67
2021/07/12 03:14:09;;;;;;;8.60;7.40;;;;;;;19.58;81.01;100467.14;93166;1204;82580;-68
2021/07/12 03:16:18;;;;;;;7.40;6.70;;;;;;;19.64;81.06;100463.42;93140;1204;67051;-68
2021/07/12 03:18:30;;;;;;;7.20;6.20;;;;;;;19.57;81.18;100466.30;93137;1208;70018;-68
2021/07/12 03:20:42;;;;;;;9.30;6.70;;;;;;;19.57;81.38;100470.95;93153;1209;86366;-67
2021/07/12 03:22:54;;;;;;;7.50;6.30;;;;;;;19.61;80.89;100461.17;93118;1209;74979;-68
2021/07/12 03:25:04;;;;;;;7.60;5.80;;;;;;;19.66;81.18;100459.35;93141;1209;81685;-68
2021/07/12 03:27:17;;;;;;;8.40;6.80;;;;;;;19.78;80.95;100462.00;93171;1210;65376;-67
2021/07/12 03:29:28;;;;;;;10.70;7.10;;;;;;;19.86;80.93;100459.69;93128;1208;67642;-67
2021/07/12 03:31:36;;;;;;;9.70;7.20;;;;;;;19.85;80.83;100462.69;93189;1204;86247;-67
2021/07/12 03:33:46;;;;;;;9.60;6.30;;;;;;;19.92;80.87;100463.34;93186;1208;74602;-60
2021/07/12 03:35:59;;;;;;;7.50;6.30;;;;;;;20.02;80.69;100458.85;93163;1208;81648;-60
2021/07/12 03:38:11;;;;;;;8.00;6.80;;;;;;;20.15;80.56;100452.22;93123;1208;66292;-60
2021/07/12 03:40:21;;;;;;;10.60;6.90;;;;;;;20.52;80.56;100464.32;93154;1209;68232;-68
2021/07/12 03:42:29;;;;;;;7.50;6.70;;;;;;;21.08;79.78;100465.09;93165;1209;85903;-68
2021/07/12 03:44:42;;;;;;;10.00;6.90;;;;;;;21.44;79.03;100464.41;93149;1209;76079;-59
2021/07/12 03:46:50;;;;;;;9.20;8.10;;;;;;;22.08;78.58;100473.59;93150;1210;81685;-60
2021/07/12 03:48:58;;;;;;;9.20;7.70;;;;;;;22.70;78.00;100457.23;93150;1209;65124;-59
2021/07/12 03:51:07;;;;;;;11.90;8.10;;;;;;;23.43;77.53;100464.42;93190;1209;69361;-60
2021/07/12 03:53:15;;;;;;;10.30;7.30;;;;;;;24.08;76.73;100466.44;93137;1204;85683;-65
2021/07/12 03:55:26;;;;;;;8.20;7.10;;;;;;;24.61;75.62;100472.48;93195;1209;74242;-68
2021/07/12 03:57:34;;;;;;;8.20;7.20;;;;;;;25.03;73.88;100467.38;93176;1203;82487;-66
2021/07/12 03:59:42;;;;;;;7.70;6.10;;;;;;;25.37;73.55;100455.61;93169;1208;66373;-59
2021/07/12 04:01:49;;;;;;;6.70;6.00;;;;;;;25.86;72.23;100455.58;93169;1208;68012;-59
2021/07/12 04:03:57;;;;;;;7.10;5.70;;;;;;;26.10;71.28;100454.54;93170;1209;87406;-59
2021/07/12 04:06:07;;;;;;;10.70;5.90;;;;;;;26.38;69.90;100453.77;93177;1209;74881;-59
2021/07/12 04:08:15;;;;;;;7.70;5.50;;;;;;;26.44;69.22;100450.94;93179;1209;81392;-66
2021/07/12 04:10:24;;;;;;;8.10;5.90;;;;;;;26.03;68.68;100451.30;93159;1203;66681;-67
2021/07/12 04:12:32;;;;;;;8.10;5.60;;;;;;;25.02;68.42;100445.56;93191;1210;68197;-68
2021/07/12 04:14:40;;;;;;;6.80;6.10;;;;;;;24.26;68.73;100444.90;93167;1209;86456;-59
2021/07/12 04:16:47;;;;;;;7.50;6.50;;;;;;;23.72;69.80;100448.20;93122;1208;73758;-59
2021/07/12 04:18:55;;;;;;;9.60;6.80;;;;;;;23.95;70.67;100444.09;93141;1214;81962;-60
2021/07/12 04:21:04;;;;;;;8.60;6.60;;;;;;;24.39;70.60;100438.83;93170;1214;65314;-60
2021/07/12 04:23:18;;;;;;;7.60;6.50;;;;;;;24.84;70.17;100441.48;93158;1209;69101;-59
2021/07/12 04:25:26;;;;;;;10.80;7.20;;;;;;;25.76;70.22;100431.59;93174;1207;86625;-59
2021/07/12 04:27:34;;;;;;;9.20;8.10;;;;;;;26.41;67.99;100440.44;93165;1209;74481;-58
2021/07/12 04:29:41;;;;;;;9.90;8.10;;;;;;;26.21;67.12;100436.75;93128;1208;81598;-60
2021/07/12 04:31:49;;;;;;;10.10;7.80;;;;;;;25.84;67.71;100433.73;93152;1209;66792;-59
2021/07/12 04:33:57;;;;;;;9.90;8.10;;;;;;;26.68;67.48;100429.60;93156;1208;68120;-60
2021/07/12 04:36:08;;;;;;;13.10;9.10;;;;;;;27.37;66.19;100427.07;93155;1208;86659;-61
2021/07/12 04:38:15;;;;;;;10.30;7.80;;;;;;;27.77;65.40;100424.84;93201;1214;73928;-60
2021/07/12 04:40:23;;;;;;;8.60;7.80;;;;;;;27.82;63.24;100414.47;93110;1211;81179;-60
2021/07/12 04:42:31;;;;;;;10.80;8.70;;;;;;;27.36;62.87;100421.83;93179;1209;66581;-59
2021/07/12 04:44:39;;;;;;;8.50;7.70;;;;;;;26.71;63.56;100427.08;93199;1214;68721;-67
2021/07/12 04:46:46;;;;;;;11.10;8.40;;;;;;;26.95;64.16;100425.14;93197;1211;86561;-66
2021/07/12 04:48:54;;;;;;;9.20;7.90;;;;;;;27.69;63.43;100423.55;93166;1208;76499;-67
2021/07/12 04:51:02;;;;;;;9.40;7.60;;;;;;;28.24;62.86;100410.69;93152;1208;81724;-67
2021/07/12 04:53:10;;;;;;;8.00;7.00;;;;;;;28.80;62.21;100420.76;93122;1209;67414;-67
2021/07/12 04:55:20;;;;;;;7.30;6.60;;;;;;;29.32;61.80;100411.86;93214;1208;69430;-67
2021/07/12 04:57:32;;;;;;;8.50;7.60;;;;;;;29.94;57.69;100423.22;93132;1209;85775;-67
2021/07/12 04:59:44;;;;;;;9.20;7.20;;;;;;;30.27;59.35;100417.02;93068;1203;75312;-59
2021/07/12 05:01:52;;;;;;;8.60;6.90;;;;;;;30.60;58.64;100419.53;93137;1209;80745;-58
2021/07/12 05:03:59;;;;;;;9.10;7.10;;;;;;;30.72;57.81;100422.52;93148;1209;65705;-67
2021/07/12 05:06:07;;;;;;;8.60;7.70;;;;;;;30.89;56.79;100414.20;93180;1209;69081;-67
2021/07/12 05:08:15;;;;;;;7.80;7.00;;;;;;;31.06;56.33;100417.08;93189;1209;85959;-64
2021/07/12 05:10:26;;;;;;;9.50;7.50;;;;;;;31.45;55.33;100421.74;93169;1209;75088;-62
2021/07/12 05:12:35;;;;;;;8.00;7.30;;;;;;;32.02;54.97;100414.88;93172;1208;81818;-62
2021/07/12 05:14:43;;;;;;;8.00;7.30;;;;;;;32.25;53.92;100412.66;93178;1208;68037;-67
2021/07/12 05:16:52;;;;;;;6.70;6.10;;;;;;;32.55;53.33;100414.39;93159;1209;69681;-64
2021/07/12 05:19:00;;;;;;;10.70;7.30;;;;;;;32.70;52.73;100415.82;93185;1209;86831;-66
2021/07/12 05:21:07;;;;;;;6.90;6.30;;;;;;;32.88;52.24;100422.17;93182;1208;75401;-66
2021/07/12 05:23:18;;;;;;;7.00;6.40;;;;;;;33.15;51.22;100419.73;93153;1209;81448;-64
2021/07/12 05:25:26;;;;;;;7.30;6.60;;;;;;;33.37;50.97;100423.37;93165;1209;66743;-66
2021/07/12 05:27:34;;;;;;;7.70;7.00;;;;;;;33.40;49.93;100417.91;93170;1208;68527;-66
2021/07/12 05:29:45;;;;;;;7.50;6.30;;;;;;;33.19;50.71;100415.08;93206;1209;87090;-65
2021/07/12 05:31:52;;;;;;;10.80;7.70;;;;;;;33.60;49.70;100416.28;93185;1209;75631;-67
2021/07/12 05:34:03;;;;;;;9.40;7.50;;;;;;;33.82;48.94;100424.33;93137;1209;81927;-63
2021/07/12 05:36:11;;;;;;;7.70;6.90;;;;;;;33.89;49.31;100421.80;93172;1209;66025;-63
2021/07/12 05:38:22;;;;;;;8.60;7.30;;;;;;;34.29;48.54;100417.28;93171;1208;69711;-71
2021/07/12 05:40:30;;;;;;;8.40;7.60;;;;;;;34.53;47.25;100415.70;93165;1209;84881;-65
2021/07/12 05:42:38;;;;;;;7.60;6.90;;;;;;;34.25;46.81;100412.73;93170;1208;75703;-66
2021/07/12 05:44:46;;;;;;;9.20;7.40;;;;;;;34.78;46.77;100409.77;93191;1209;81423;-61
2021/07/12 05:46:53;;;;;;;8.40;7.60;;;;;;;35.21;46.35;100422.42;93144;1210;67357;-59
2021/07/12 05:49:01;;;;;;;8.20;7.40;;;;;;;35.70;45.60;100411.89;93173;1209;67580;-60
2021/07/12 05:51:09;;;;;;;8.30;7.10;;;;;;;36.03;45.07;100410.50;93156;1209;86784;-61
2021/07/12 05:53:17;;;;;;;7.50;6.80;;;;;;;36.25;44.55;100419.52;93142;1208;75427;-67
2021/07/12 05:55:24;;;;;;;7.30;6.60;;;;;;;36.48;43.62;100409.30;93127;1207;80056;-69
2021/07/12 05:57:32;;;;;;;7.70;7.00;;;;;;;36.38;43.45;100410.63;93143;1209;65830;-65
2021/07/12 05:59:43;;;;;;;8.40;7.60;;;;;;;36.90;42.13;100416.02;93127;1209;68580;-67
2021/07/12 06:01:50;;;;;;;7.10;6.50;;;;;;;36.92;41.72;100410.03;93159;1209;87115;-65
2021/07/12 06:03:58;;;;;;;8.90;6.90;;;;;;;37.00;41.48;100404.20;93135;1210;75549;-60
2021/07/12 06:06:09;;;;;;;8.30;7.60;;;;;;;36.74;42.38;100405.94;93162;1209;82562;-60
2021/07/12 06:08:16;;;;;;;9.50;7.80;;;;;;;36.62;41.73;100402.05;93130;1211;67754;-60
2021/07/12 06:10:25;;;;;;;8.50;7.70;;;;;;;36.92;41.18;100410.03;93146;1209;67892;-59
2021/07/12 06:12:33;;;;;;;8.00;7.30;;;;;;;36.90;40.68;100401.11;93177;1209;87622;-59
2021/07/12 06:14:40;;;;;;;7.90;7.10;;;;;;;36.65;41.13;100387.23;93173;1209;74072;-58
2021/07/12 06:16:48;;;;;;;7.50;6.70;;;;;;;36.48;41.04;100389.59;93159;1210;81710;-60
2021/07/12 06:18:56;;;;;;;7.80;7.10;;;;;;;36.60;40.82;100395.97;93120;1209;65737;-69
2021/07/12 06:21:03;;;;;;;8.80;7.30;;;;;;;36.60;41.29;100395.14;93102;1209;68484;-69
2021/07/12 06:23:14;;;;;;;10.10;7.50;;;;;;;37.06;40.45;100396.29;93171;1209;86020;-69
2021/07/12 06:25:23;;;;;;;8.70;7.80;;;;;;;37.01;40.35;100393.76;93166;1209;75364;-70
2021/07/12 06:27:31;;;;;;;8.70;7.90;;;;;;;37.15;39.98;100391.28;93164;1210;81488;-70
2021/07/12 06:29:39;;;;;;;8.70;7.90;;;;;;;37.07;39.87;100395.11;93134;1210;67763;-60
2021/07/12 06:31:46;;;;;;;8.40;7.30;;;;;;;36.71;40.24;100393.41;93144;1209;69579;-58
2021/07/12 06:33:55;;;;;;;9.20;8.00;;;;;;;36.86;40.27;100388.95;93171;1203;85705;-60
2021/07/12 06:36:03;;;;;;;9.30;8.30;;;;;;;36.73;40.26;100387.43;93202;1209;75287;-60
2021/07/12 06:38:11;;;;;;;10.10;9.10;;;;;;;36.76;40.04;100389.49;92974;1215;81956;-60
2021/07/12 06:40:20;;;;;;;9.60;8.40;;;;;;;36.47;40.03;100383.14;93114;1209;67130;-68
2021/07/12 06:42:27;;;;;;;9.60;8.60;;;;;;;35.94;41.33;100389.29;93215;1204;69808;-68
2021/07/12 06:44:35;;;;;;;9.70;8.70;;;;;;;35.68;42.00;100403.01;93180;1208;87758;-68
2021/07/12 06:46:43;;;;;;;10.00;8.20;;;;;;;35.64;41.52;100402.08;93164;1209;74143;-68
2021/07/12 06:48:50;;;;;;;9.30;8.20;;;;;;;35.93;41.41;100387.67;93203;1206;82039;-68
2021/07/12 06:51:01;;;;;;;10.60;9.50;;;;;;;35.96;41.48;100387.75;93126;1208;65658;-68
2021/07/12 06:53:14;;;;;;;9.60;8.70;;;;;;;36.34;40.70;100378.78;93178;1204;69756;-68
2021/07/12 06:55:25;;;;;;;10.00;9.10;;;;;;;36.56;40.82;100375.34;93123;1209;85491;-60
2021/07/12 06:57:33;;;;;;;9.10;8.20;;;;;;;37.08;40.36;100388.31;93145;1208;73941;-59
2021/07/12 06:59:44;;;;;;;9.10;8.40;;;;;;;37.68;40.14;100392.48;93123;1208;80093;-59
2021/07/12 07:01:52;;;;;;;8.00;7.40;;;;;;;37.72;39.65;100388.53;93152;1214;66114;-60
2021/07/12 07:04:02;;;;;;;9.80;8.80;;;;;;;38.28;38.40;100396.50;93140;1214;68362;-60
2021/07/12 07:06:10;;;;;;;9.10;7.70;;;;;;;38.80;38.18;100387.38;93137;1210;87682;-60
2021/07/12 07:08:18;;;;;;;8.20;7.50;;;;;;;38.70;38.22;100388.81;93181;1208;75033;-61
2021/07/12 07:10:26;;;;;;;9.40;8.20;;;;;;;38.97;37.74;100388.85;93187;1209;80658;-60
2021/07/12 07:12:36;;;;;;;8.20;7.50;;;;;;;38.99;37.46;100384.45;93157;1208;65919;-60
2021/07/12 07:14:44;;;;;;;9.30;8.40;;;;;;;39.02;37.37;100380.04;93240;1209;68754;-67
2021/07/12 07:16:55;;;;;;;8.60;7.80;;;;;;;38.95;36.84;100383.59;93150;1203;87093;-67
2021/07/12 07:19:03;;;;;;;9.20;8.40;;;;;;;39.37;36.48;100378.56;93170;1209;75944;-60
2021/07/12 07:21:10;;;;;;;10.30;8.30;;;;;;;38.60;36.52;100377.32;93182;1208;81688;-60
2021/07/12 07:23:21;;;;;;;9.10;8.20;;;;;;;37.31;37.30;100380.77;93177;1210;65519;-60
2021/07/12 07:25:29;;;;;;;9.70;8.80;;;;;;;37.27;37.18;100385.52;93215;1204;68907;-60
2021/07/12 07:27:38;;;;;;;8.70;7.90;;;;;;;37.06;37.86;100377.39;93184;1209;86621;-61
2021/07/12 07:29:46;;;;;;;9.20;8.50;;;;;;;36.64;39.73;100381.98;93179;1204;73880;-67
2021/07/12 07:31:54;;;;;;;8.80;8.00;;;;;;;37.41;38.87;100374.56;93137;1209;80563;-68
2021/07/12 07:34:02;;;;;;;7.70;7.00;;;;;;;38.00;37.49;100370.56;93132;1208;65459;-67
2021/07/12 07:36:10;;;;;;;8.80;8.10;;;;;;;38.33;38.09;100370.81;93164;1208;68082;-67
2021/07/12 07:38:17;;;;;;;9.30;8.40;;;;;;;38.51;36.88;100369.13;93153;1209;87273;-66
2021/07/12 07:40:25;;;;;;;8.50;7.70;;;;;;;38.50;36.63;100373.14;93165;1209;74785;-67
2021/07/12 07:42:37;;;;;;;10.20;8.20;;;;;;;38.64;37.29;100378.20;93151;1209;82547;-67
2021/07/12 07:44:45;;;;;;;8.90;8.20;;;;;;;38.53;36.62;100372.39;93169;1214;66271;-67
2021/07/12 07:46:52;;;;;;;9.10;8.30;;;;;;;38.92;36.15;100362.56;93116;1209;69880;-67
2021/07/12 07:49:00;;;;;;;8.70;7.90;;;;;;;39.40;36.38;100372.15;93152;1213;86580;-67
2021/07/12 07:51:08;;;;;;;8.80;8.10;;;;;;;39.70;35.96;100368.50;93147;1209;75726;-68
2021/07/12 07:53:16;;;;;;;8.70;7.90;;;;;;;39.85;35.92;100370.30;93142;1209;80181;-61
2021/07/12 07:55:24;;;;;;;7.80;7.20;;;;;;;39.64;34.31;100367.23;93155;1208;66542;-61
2021/07/12 07:57:32;;;;;;;9.40;8.20;;;;;;;39.51;34.95;100361.78;93170;1214;68222;-60
2021/07/12 07:59:40;;;;;;;8.30;7.60;;;;;;;39.25;34.74;100361.04;93151;1208;85547;-68
2021/07/12 08:01:47;;;;;;;8.60;7.80;;;;;;;39.18;35.67;100364.54;93167;1211;74985;-67
2021/07/12 08:03:55;;;;;;;8.20;7.50;;;;;;;39.42;35.64;100358.43;93179;1214;81407;-60
2021/07/12 08:06:03;;;;;;;7.70;7.10;;;;;;;39.45;35.73;100363.31;93212;1214;66376;-61
2021/07/12 08:08:14;;;;;;;7.80;7.20;;;;;;;39.14;36.67;100362.88;93195;1208;68875;-61
2021/07/12 08:10:24;;;;;;;8.80;8.10;;;;;;;38.95;35.56;100366.64;93162;1208;86540;-67
2021/07/12 08:12:35;;;;;;;7.60;7.10;;;;;;;38.58;35.81;100357.94;93153;1209;74550;-67
2021/07/12 08:14:42;;;;;;;8.60;7.70;;;;;;;38.67;36.11;100361.33;93130;1209;80541;-60
2021/07/12 08:16:50;;;;;;;9.30;8.50;;;;;;;38.66;36.95;100350.39;93125;1209;67199;-60
2021/07/12 08:18:58;;;;;;;8.10;7.50;;;;;;;38.56;36.24;100351.86;93167;1214;70749;-67
2021/07/12 08:21:08;;;;;;;7.70;7.10;;;;;;;38.99;36.01;100355.37;93175;1209;86236;-68
2021/07/12 08:23:15;;;;;;;8.30;7.30;;;;;;;39.55;35.66;100349.70;93134;1209;74957;-67
2021/07/12 08:25:25;;;;;;;8.40;7.60;;;;;;;39.77;34.60;100352.44;93154;1208;81269;-68
2021/07/12 08:27:32;;;;;;;8.10;7.30;;;;;;;39.73;33.72;100351.57;93173;1204;68193;-68
2021/07/12 08:29:40;;;;;;;7.90;7.00;;;;;;;39.75;35.12;100349.16;93210;1214;68074;-60
2021/07/12 08:31:48;;;;;;;7.40;6.80;;;;;;;39.70;33.65;100346.69;93171;1204;87563;-59
2021/07/12 08:33:59;;;;;;;7.90;7.20;;;;;;;39.90;33.21;100350.97;93154;1209;75310;-60
2021/07/12 08:36:13;;;;;;;10.30;7.30;;;;;;;39.39;34.40;100347.09;93146;1209;80995;-60
2021/07/12 08:38:21;;;;;;;8.30;7.40;;;;;;;39.20;34.92;100359.34;93151;1209;66924;-67
2021/07/12 08:40:30;;;;;;;8.20;7.50;;;;;;;39.48;34.01;100353.25;93179;1209;68071;-68
2021/07/12 08:42:38;;;;;;;9.10;8.30;;;;;;;39.79;34.00;100350.03;93163;1208;87006;-68
2021/07/12 08:44:45;;;;;;;8.10;7.40;;;;;;;39.76;35.22;100352.81;93200;1209;75010;-67
2021/07/12 08:46:56;;;;;;;12.00;10.20;;;;;;;39.96;33.94;100349.42;93146;1209;80881;-68
2021/07/12 08:49:04;;;;;;;8.20;7.50;;;;;;;40.12;34.74;100343.53;93142;1209;66558;-68
2021/07/12 08:51:16;;;;;;;8.50;7.10;;;;;;;40.15;33.44;100341.94;92927;1208;69331;-69
2021/07/12 08:53:23;;;;;;;8.80;7.30;;;;;;;39.44;33.45;100355.23;93191;1209;87094;-66
2021/07/12 08:55:31;;;;;;;8.00;7.20;;;;;;;39.40;33.60;100349.53;93159;1211;74503;-68
2021/07/12 08:57:39;;;;;;;8.30;7.40;;;;;;;39.09;34.88;100346.25;93142;1209;81046;-67
2021/07/12 08:59:55;;;;;;;7.80;7.20;;;;;;;39.16;34.58;100357.64;93055;1209;66255;-68
2021/07/12 09:02:12;;;;;;;8.10;7.30;;;;;;;39.43;34.62;100343.11;93189;1208;67778;-69
2021/07/12 09:04:31;;;;;;;8.00;6.80;;;;;;;39.71;33.59;100344.67;93163;1209;87809;-68
2021/07/12 09:06:39;;;;;;;7.30;6.70;;;;;;;39.73;34.02;100345.91;93191;1208;75223;-68
2021/07/12 09:08:53;;;;;;;8.40;7.70;;;;;;;39.45;33.28;100335.04;93180;1209;81408;-60
2021/07/12 09:11:10;;;;;;;7.50;6.80;;;;;;;39.26;32.80;100337.20;93162;1204;67600;-59
2021/07/12 09:13:18;;;;;;;7.80;7.10;;;;;;;39.31;33.62;100340.52;93196;1213;68546;-60
2021/07/12 09:15:26;;;;;;;8.30;7.60;;;;;;;39.07;34.39;100329.66;93169;1209;86299;-59
2021/07/12 09:17:37;;;;;;;8.30;7.00;;;;;;;38.92;32.75;100339.97;93152;1214;74365;-60
2021/07/12 09:19:44;;;;;;;7.90;7.10;;;;;;;38.53;35.07;100338.50;93177;1207;82093;-59
2021/07/12 09:21:56;;;;;;;9.00;7.80;;;;;;;37.92;35.16;100330.13;93230;1204;65910;-59
2021/07/12 09:24:20;;;;;;;8.50;7.70;;;;;;;37.40;34.71;100333.46;93174;1209;68369;-68
2021/07/12 09:26:27;;;;;;;8.10;7.30;;;;;;;37.43;36.85;100334.75;93201;1208;86388;-67
2021/07/12 09:28:44;;;;;;;8.40;7.50;;;;;;;37.32;36.71;100337.31;93196;1208;74393;-68
2021/07/12 09:30:52;;;;;;;7.50;7.00;;;;;;;37.19;36.31;100335.83;93141;1208;80226;-66
2021/07/12 09:33:02;;;;;;;9.00;7.60;;;;;;;37.13;36.66;100335.30;93162;1214;66365;-69
2021/07/12 09:35:16;;;;;;;8.60;7.20;;;;;;;36.74;37.29;100338.36;93197;1208;69500;-71
2021/07/12 09:37:28;;;;;;;9.20;8.30;;;;;;;36.28;36.79;100340.01;93143;1209;87860;-67
2021/07/12 09:39:40;;;;;;;8.40;7.70;;;;;;;36.07;37.12;100332.63;93199;1208;74289;-59
2021/07/12 09:41:50;;;;;;;8.70;8.00;;;;;;;35.94;37.67;100341.48;93212;1209;80611;-58
2021/07/12 09:44:05;;;;;;;8.00;7.30;;;;;;;35.96;37.73;100328.69;93154;1209;67684;-58
2021/07/12 09:46:31;;;;;;;8.60;7.60;;;;;;;35.43;37.66;100330.00;93126;1208;68491;-59
2021/07/12 09:48:39;;;;;;;8.20;7.40;;;;;;;35.26;38.34;100341.52;93145;1210;87719;-67
2021/07/12 09:50:53;;;;;;;9.00;8.10;;;;;;;34.94;38.34;100336.89;93144;1209;74877;-68
2021/07/12 09:53:06;;;;;;;8.40;7.60;;;;;;;35.02;39.13;100326.69;93162;1209;81696;-69
2021/07/12 09:55:32;;;;;;;12.50;8.00;;;;;;;35.16;40.32;100339.19;93194;1209;66265;-59
2021/07/12 09:57:40;;;;;;;10.00;7.80;;;;;;;35.07;39.04;100335.72;93169;1209;69083;-59
2021/07/12 10:00:05;;;;;;;8.20;7.50;;;;;;;35.05;40.41;100331.60;93165;1210;86511;-58
2021/07/12 10:02:20;;;;;;;7.70;7.00;;;;;;;35.06;40.08;100334.08;93187;1209;74985;-58
2021/07/12 10:04:28;;;;;;;8.50;7.30;;;;;;;35.06;39.18;100333.22;93114;1209;82558;-70
2021/07/12 10:06:37;;;;;;;10.30;6.80;;;;;;;35.01;39.27;100330.66;93134;1207;66641;-69
2021/07/12 10:08:45;;;;;;;7.70;6.90;;;;;;;35.04;39.40;100324.34;93153;1209;68126;-59